Terminal Aerodrome Forecast
Issued by NWS El Paso, TX

Home | Current Version | Previous Version | Text Only | Print | Product List | Glossary On
Versions: 1 2 3 4 5 6 7 8 9 10 11 12 13 14 15 16
000
FTUS44 KEPZ 041700
TAFELP
TAF
KELP 041739Z 0418/0518 27012G22KT P6SM SCT060 SCT100
     FM042000 25014G23KT P6SM VCSH SCT060 BKN100
     FM050100 32015G25KT P6SM VCSH SCT050 BKN090
     FM050300 03015G25KT P6SM SCT040 BKN070
     FM050600 07011KT P6SM SCT015 BKN030
     FM051500 06010KT P6SM FEW015 BKN040=

USA.gov is the U.S. government's official web portal to all federal, state and local government web resources and services.